sensor_id;sensor_type;location;lat;lon;timestamp;pressure;altitude;pressure_sealevel;temperature;humidity
75188;BME280;63762;51.334;22.108;2023-03-12T00:02:19;100668.70;;;-0.43;77.46
75188;BME280;63762;51.334;22.108;2023-03-12T00:12:26;100682.23;;;-0.52;78.07
75188;BME280;63762;51.334;22.108;2023-03-12T00:22:33;100677.98;;;-0.56;78.01
75188;BME280;63762;51.334;22.108;2023-03-12T00:32:40;100685.29;;;-0.39;77.37
75188;BME280;63762;51.334;22.108;2023-03-12T00:42:48;100700.24;;;-0.38;77.12
75188;BME280;63762;51.334;22.108;2023-03-12T00:52:55;100693.05;;;-0.35;76.81
75188;BME280;63762;51.334;22.108;2023-03-12T01:03:02;100721.70;;;-0.72;77.56
75188;BME280;63762;51.334;22.108;2023-03-12T01:13:09;100722.58;;;-0.73;77.25
75188;BME280;63762;51.334;22.108;2023-03-12T01:23:16;100720.27;;;-0.82;77.12
75188;BME280;63762;51.334;22.108;2023-03-12T01:33:23;100708.79;;;-0.81;76.29
75188;BME280;63762;51.334;22.108;2023-03-12T01:43:35;100717.73;;;-0.85;76.63
75188;BME280;63762;51.334;22.108;2023-03-12T01:53:39;100723.76;;;-0.81;76.83
75188;BME280;63762;51.334;22.108;2023-03-12T02:03:47;100731.73;;;-0.83;77.23
75188;BME280;63762;51.334;22.108;2023-03-12T02:13:52;100732.60;;;-0.82;77.58
75188;BME280;63762;51.334;22.108;2023-03-12T02:24:07;100736.37;;;-0.89;77.95
75188;BME280;63762;51.334;22.108;2023-03-12T02:34:11;100747.95;;;-0.93;78.31
75188;BME280;63762;51.334;22.108;2023-03-12T02:44:17;100756.41;;;-1.10;78.73
75188;BME280;63762;51.334;22.108;2023-03-12T02:54:21;100761.63;;;-1.08;79.15
75188;BME280;63762;51.334;22.108;2023-03-12T03:04:29;100761.91;;;-1.17;79.66
75188;BME280;63762;51.334;22.108;2023-03-12T03:14:35;100768.35;;;-1.26;80.09
75188;BME280;63762;51.334;22.108;2023-03-12T03:24:42;100782.88;;;-1.13;79.95
75188;BME280;63762;51.334;22.108;2023-03-12T03:34:49;100777.73;;;-0.90;79.46
75188;BME280;63762;51.334;22.108;2023-03-12T03:44:56;100771.03;;;-1.00;79.77
75188;BME280;63762;51.334;22.108;2023-03-12T03:55:04;100788.39;;;-0.93;79.63
75188;BME280;63762;51.334;22.108;2023-03-12T04:05:11;100776.90;;;-0.90;79.78
75188;BME280;63762;51.334;22.108;2023-03-12T04:15:17;100784.50;;;-0.81;79.70
75188;BME280;63762;51.334;22.108;2023-03-12T04:25:25;100785.41;;;-0.82;79.92
75188;BME280;63762;51.334;22.108;2023-03-12T04:35:32;100774.56;;;-0.73;79.50
75188;BME280;63762;51.334;22.108;2023-03-12T04:45:39;100782.73;;;-0.81;80.09
75188;BME280;63762;51.334;22.108;2023-03-12T04:55:46;100793.19;;;-0.78;80.27
75188;BME280;63762;51.334;22.108;2023-03-12T05:05:53;100818.53;;;-0.72;80.40
75188;BME280;63762;51.334;22.108;2023-03-12T05:16:00;100830.67;;;-0.67;80.22
75188;BME280;63762;51.334;22.108;2023-03-12T05:26:32;100835.06;;;-0.66;80.38
75188;BME280;63762;51.334;22.108;2023-03-12T05:36:23;100822.35;;;-0.55;79.93
75188;BME280;63762;51.334;22.108;2023-03-12T05:46:26;100844.37;;;-0.54;79.34
75188;BME280;63762;51.334;22.108;2023-03-12T05:56:29;100864.23;;;-0.43;79.60
75188;BME280;63762;51.334;22.108;2023-03-12T06:06:36;100882.77;;;-0.44;79.79
75188;BME280;63762;51.334;22.108;2023-03-12T06:16:43;100876.61;;;-0.45;80.04
75188;BME280;63762;51.334;22.108;2023-03-12T06:26:50;100875.45;;;-0.36;79.84
75188;BME280;63762;51.334;22.108;2023-03-12T06:36:58;100882.05;;;-0.23;80.03
75188;BME280;63762;51.334;22.108;2023-03-12T06:47:05;100893.41;;;-0.20;79.56
75188;BME280;63762;51.334;22.108;2023-03-12T06:57:12;100893.11;;;-0.11;79.46
75188;BME280;63762;51.334;22.108;2023-03-12T07:07:19;100896.15;;;-0.23;80.11
75188;BME280;63762;51.334;22.108;2023-03-12T07:17:26;100918.37;;;-0.02;79.31
75188;BME280;63762;51.334;22.108;2023-03-12T07:27:33;100939.47;;;-0.01;79.18
75188;BME280;63762;51.334;22.108;2023-03-12T07:37:40;100927.87;;;0.03;79.58
75188;BME280;63762;51.334;22.108;2023-03-12T07:47:48;100939.72;;;-0.08;80.86
75188;BME280;63762;51.334;22.108;2023-03-12T07:57:55;100954.61;;;-0.06;80.81
75188;BME280;63762;51.334;22.108;2023-03-12T08:08:02;100924.40;;;0.01;81.77
75188;BME280;63762;51.334;22.108;2023-03-12T08:18:09;100933.55;;;0.18;80.72
75188;BME280;63762;51.334;22.108;2023-03-12T08:28:17;100936.12;;;0.70;77.65
75188;BME280;63762;51.334;22.108;2023-03-12T08:38:23;100961.77;;;0.68;77.08
75188;BME280;63762;51.334;22.108;2023-03-12T08:48:31;100974.48;;;0.58;77.27
75188;BME280;63762;51.334;22.108;2023-03-12T08:58:38;100981.86;;;0.49;77.55
75188;BME280;63762;51.334;22.108;2023-03-12T09:08:45;100996.55;;;0.57;77.03
75188;BME280;63762;51.334;22.108;2023-03-12T09:18:52;101012.58;;;0.53;76.54
75188;BME280;63762;51.334;22.108;2023-03-12T09:28:59;101005.88;;;0.43;79.05
75188;BME280;63762;51.334;22.108;2023-03-12T09:39:06;101033.11;;;0.46;79.42
75188;BME280;63762;51.334;22.108;2023-03-12T09:59:28;101002.65;;;1.31;72.57
75188;BME280;63762;51.334;22.108;2023-03-12T10:19:52;101046.27;;;1.46;71.07
75188;BME280;63762;51.334;22.108;2023-03-12T10:29:54;101041.06;;;1.89;66.20
75188;BME280;63762;51.334;22.108;2023-03-12T10:39:56;101052.05;;;2.01;66.76
75188;BME280;63762;51.334;22.108;2023-03-12T10:50:11;101053.46;;;2.31;61.39
75188;BME280;63762;51.334;22.108;2023-03-12T11:00:19;101062.66;;;2.45;58.76
75188;BME280;63762;51.334;22.108;2023-03-12T11:10:23;101073.21;;;2.46;60.84
75188;BME280;63762;51.334;22.108;2023-03-12T11:20:28;101076.72;;;3.08;57.56
75188;BME280;63762;51.334;22.108;2023-03-12T11:33:30;101083.80;;;3.48;54.73
75188;BME280;63762;51.334;22.108;2023-03-12T12:44:56;101120.63;;;4.14;51.54
75188;BME280;63762;51.334;22.108;2023-03-12T13:05:39;101138.73;;;4.61;48.44
75188;BME280;63762;51.334;22.108;2023-03-12T13:15:34;101155.73;;;4.40;47.86
75188;BME280;63762;51.334;22.108;2023-03-12T13:25:53;101154.28;;;3.78;53.09
75188;BME280;63762;51.334;22.108;2023-03-12T13:36:04;101169.10;;;3.43;53.00
75188;BME280;63762;51.334;22.108;2023-03-12T13:56:26;101185.26;;;4.54;50.33
75188;BME280;63762;51.334;22.108;2023-03-12T14:06:29;101183.12;;;5.15;49.83
75188;BME280;63762;51.334;22.108;2023-03-12T14:16:41;101184.84;;;4.63;48.96
75188;BME280;63762;51.334;22.108;2023-03-12T14:26:45;101205.56;;;4.57;50.02
75188;BME280;63762;51.334;22.108;2023-03-12T14:47:04;101224.20;;;4.94;47.59
75188;BME280;63762;51.334;22.108;2023-03-12T14:57:12;101247.17;;;4.41;50.20
75188;BME280;63762;51.334;22.108;2023-03-12T15:07:19;101239.48;;;3.96;50.36
75188;BME280;63762;51.334;22.108;2023-03-12T15:17:23;101246.25;;;4.03;51.58
75188;BME280;63762;51.334;22.108;2023-03-12T15:27:31;101248.52;;;5.05;48.96
75188;BME280;63762;51.334;22.108;2023-03-12T15:37:34;101256.53;;;4.49;50.07
75188;BME280;63762;51.334;22.108;2023-03-12T15:47:43;101270.14;;;4.05;50.70
75188;BME280;63762;51.334;22.108;2023-03-12T15:57:50;101274.98;;;3.75;51.38
75188;BME280;63762;51.334;22.108;2023-03-12T16:07:51;101293.41;;;3.60;52.02
75188;BME280;63762;51.334;22.108;2023-03-12T16:17:52;101308.28;;;3.44;53.14
75188;BME280;63762;51.334;22.108;2023-03-12T16:27:55;101300.97;;;3.27;53.56
75188;BME280;63762;51.334;22.108;2023-03-12T16:37:59;101317.05;;;3.24;54.00
75188;BME280;63762;51.334;22.108;2023-03-12T16:48:03;101323.00;;;3.09;54.50
75188;BME280;63762;51.334;22.108;2023-03-12T16:58:05;101336.40;;;3.06;55.61
75188;BME280;63762;51.334;22.108;2023-03-12T17:08:06;101349.70;;;3.06;55.66
75188;BME280;63762;51.334;22.108;2023-03-12T17:18:10;101369.73;;;3.15;55.94
75188;BME280;63762;51.334;22.108;2023-03-12T17:28:11;101388.02;;;3.01;57.04
75188;BME280;63762;51.334;22.108;2023-03-12T17:38:15;101391.63;;;2.98;58.05
75188;BME280;63762;51.334;22.108;2023-03-12T17:48:16;101394.29;;;2.98;57.78
75188;BME280;63762;51.334;22.108;2023-03-12T17:58:18;101401.70;;;2.90;58.10
75188;BME280;63762;51.334;22.108;2023-03-12T18:08:19;101403.09;;;2.77;58.85
75188;BME280;63762;51.334;22.108;2023-03-12T18:18:21;101400.59;;;2.73;59.53
75188;BME280;63762;51.334;22.108;2023-03-12T18:28:23;101402.37;;;2.72;59.79
75188;BME280;63762;51.334;22.108;2023-03-12T18:38:31;101418.42;;;2.69;60.45
75188;BME280;63762;51.334;22.108;2023-03-12T18:48:37;101435.71;;;2.56;61.23
75188;BME280;63762;51.334;22.108;2023-03-12T18:58:44;101432.95;;;2.59;61.36
75188;BME280;63762;51.334;22.108;2023-03-12T19:08:51;101442.32;;;2.69;61.67
75188;BME280;63762;51.334;22.108;2023-03-12T19:18:58;101436.12;;;2.70;61.41
75188;BME280;63762;51.334;22.108;2023-03-12T19:29:06;101437.73;;;2.74;61.73
75188;BME280;63762;51.334;22.108;2023-03-12T19:39:13;101441.06;;;2.79;62.19
75188;BME280;63762;51.334;22.108;2023-03-12T19:49:20;101436.30;;;2.89;62.24
75188;BME280;63762;51.334;22.108;2023-03-12T19:59:27;101444.38;;;2.86;62.56
75188;BME280;63762;51.334;22.108;2023-03-12T20:09:34;101437.84;;;2.71;62.41
75188;BME280;63762;51.334;22.108;2023-03-12T20:19:41;101442.10;;;2.75;62.89
75188;BME280;63762;51.334;22.108;2023-03-12T20:29:48;101438.61;;;2.75;62.81
75188;BME280;63762;51.334;22.108;2023-03-12T20:39:56;101438.30;;;2.82;62.86
75188;BME280;63762;51.334;22.108;2023-03-12T20:50:03;101439.77;;;2.91;63.06
75188;BME280;63762;51.334;22.108;2023-03-12T21:00:10;101444.27;;;2.89;63.21
75188;BME280;63762;51.334;22.108;2023-03-12T21:10:17;101445.13;;;2.65;63.35
75188;BME280;63762;51.334;22.108;2023-03-12T21:20:24;101436.23;;;2.67;63.85
75188;BME280;63762;51.334;22.108;2023-03-12T21:30:32;101423.27;;;2.58;63.77
75188;BME280;63762;51.334;22.108;2023-03-12T21:40:39;101429.06;;;2.45;64.57
75188;BME280;63762;51.334;22.108;2023-03-12T21:50:46;101419.73;;;2.33;65.10
75188;BME280;63762;51.334;22.108;2023-03-12T22:11:06;101415.99;;;2.38;65.55
75188;BME280;63762;51.334;22.108;2023-03-12T22:21:13;101420.88;;;2.51;65.68
75188;BME280;63762;51.334;22.108;2023-03-12T22:31:14;101414.99;;;2.43;65.93
75188;BME280;63762;51.334;22.108;2023-03-12T22:41:24;101419.05;;;2.53;66.23
75188;BME280;63762;51.334;22.108;2023-03-12T22:51:30;101432.05;;;2.60;66.18
75188;BME280;63762;51.334;22.108;2023-03-12T23:01:36;101413.11;;;2.69;66.29
75188;BME280;63762;51.334;22.108;2023-03-12T23:11:43;101427.43;;;2.65;66.51
75188;BME280;63762;51.334;22.108;2023-03-12T23:21:50;101396.76;;;2.57;66.92
75188;BME280;63762;51.334;22.108;2023-03-12T23:31:57;101408.70;;;2.45;67.38
75188;BME280;63762;51.334;22.108;2023-03-12T23:42:04;101393.24;;;2.31;67.43
75188;BME280;63762;51.334;22.108;2023-03-12T23:52:11;101396.56;;;2.38;67.27
